Time;durP1;ratioP1;P1;durP2;ratioP2;P2;SDS_P1;SDS_P2;PMS_P1;PMS_P2;Temp;Humidity;BMP_temperature;BMP_pressure;BME280_temperature;BME280_humidity;BME280_pressure;Samples;Min_cycle;Max_cycle;Signal;HPM_P1;HPM_P2
2023/03/08 00:01:56;;;;;;;;;28.75;24.75;;;;;;;;5053403;28;45446;-50
2023/03/08 00:04:21;;;;;;;;;23.00;22.50;;;;;;;;5053234;28;45471;-47
2023/03/08 00:06:46;;;;;;;;;28.00;22.25;;;;;;;;5053932;28;45599;-48
2023/03/08 00:09:12;;;;;;;;;22.75;20.25;;;;;;;;5053702;28;46300;-48
2023/03/08 00:11:37;;;;;;;;;21.25;19.00;;;;;;;;5035439;28;45395;-49
2023/03/08 00:14:02;;;;;;;;;23.75;23.00;;;;;;;;5053632;28;45399;-49
2023/03/08 00:16:27;;;;;;;;;21.75;20.50;;;;;;;;5053543;28;46101;-51
2023/03/08 00:18:52;;;;;;;;;20.75;20.75;;;;;;;;5053583;28;45448;-51
2023/03/08 00:21:18;;;;;;;;;20.75;17.75;;;;;;;;5053383;28;45517;-50
2023/03/08 00:23:44;;;;;;;;;24.25;22.75;;;;;;;;5053630;28;45398;-50
2023/03/08 00:26:10;;;;;;;;;24.25;23.25;;;;;;;;5053507;28;45491;-49
2023/03/08 00:28:35;;;;;;;;;19.50;18.25;;;;;;;;5053226;28;47160;-53
2023/03/08 00:31:05;;;;;;;;;24.50;23.00;;;;;;;;5053041;28;45581;-50
2023/03/08 00:33:31;;;;;;;;;24.50;22.75;;;;;;;;5053186;28;45566;-49
2023/03/08 00:36:01;;;;;;;;;18.50;17.75;;;;;;;;5053295;28;45667;-50
2023/03/08 00:38:26;;;;;;;;;21.75;20.25;;;;;;;;5053082;28;46115;-52
2023/03/08 00:40:52;;;;;;;;;19.50;19.50;;;;;;;;5052874;28;45485;-52
2023/03/08 00:43:17;;;;;;;;;23.00;19.25;;;;;;;;5053395;28;45517;-50
2023/03/08 00:45:42;;;;;;;;;24.50;22.50;;;;;;;;5053216;28;45538;-48
2023/03/08 00:48:07;;;;;;;;;20.75;20.75;;;;;;;;5052900;28;45538;-50
2023/03/08 00:50:33;;;;;;;;;24.50;19.75;;;;;;;;5053181;28;45474;-51
2023/03/08 00:52:58;;;;;;;;;24.75;22.25;;;;;;;;5053440;28;45542;-51
2023/03/08 00:55:23;;;;;;;;;23.00;23.00;;;;;;;;5035069;28;45627;-51
2023/03/08 00:57:48;;;;;;;;;20.75;19.50;;;;;;;;5052559;28;46037;-50
2023/03/08 01:00:14;;;;;;;;;13.75;12.00;;;;;;;;5052990;28;45523;-50
2023/03/08 01:02:41;;;;;;;;;18.75;18.75;;;;;;;;5052941;28;45607;-51
2023/03/08 01:05:07;;;;;;;;;22.75;21.00;;;;;;;;5035543;28;45469;-51
2023/03/08 01:07:32;;;;;;;;;19.75;19.75;;;;;;;;5052392;28;46176;-52
2023/03/08 01:09:57;;;;;;;;;23.00;20.25;;;;;;;;5052984;28;45602;-48
2023/03/08 01:12:24;;;;;;;;;19.00;19.00;;;;;;;;5052902;28;45561;-51
2023/03/08 01:14:50;;;;;;;;;17.75;17.25;;;;;;;;5051582;28;46097;-51
2023/03/08 01:17:16;;;;;;;;;22.75;21.25;;;;;;;;5052933;28;46216;-47
2023/03/08 01:19:41;;;;;;;;;24.25;20.75;;;;;;;;5052066;28;45518;-48
2023/03/08 01:22:06;;;;;;;;;26.75;25.75;;;;;;;;5053004;28;45453;-51
2023/03/08 01:24:31;;;;;;;;;22.25;18.50;;;;;;;;5052554;28;45514;-48
2023/03/08 01:26:59;;;;;;;;;20.75;19.75;;;;;;;;5052619;28;45439;-51
2023/03/08 01:29:25;;;;;;;;;26.50;22.50;;;;;;;;5052657;28;45610;-50
2023/03/08 01:31:50;;;;;;;;;24.50;22.50;;;;;;;;5034537;28;45499;-49
2023/03/08 01:34:15;;;;;;;;;22.75;22.75;;;;;;;;5052649;28;45396;-48
2023/03/08 01:36:40;;;;;;;;;22.50;21.00;;;;;;;;5052410;28;46629;-50
2023/03/08 01:39:06;;;;;;;;;22.25;21.50;;;;;;;;5052544;28;45474;-49
2023/03/08 01:41:31;;;;;;;;;26.50;24.75;;;;;;;;5052804;28;45542;-49
2023/03/08 01:43:56;;;;;;;;;23.75;22.25;;;;;;;;5052413;28;45504;-50
2023/03/08 01:46:26;;;;;;;;;19.75;18.00;;;;;;;;5052587;28;45565;-52
2023/03/08 01:48:58;;;;;;;;;22.50;20.00;;;;;;;;5052430;28;45482;-48
2023/03/08 01:51:44;;;;;;;;;20.50;18.25;;;;;;;;5052456;28;45528;-49
2023/03/08 01:54:11;;;;;;;;;20.00;18.75;;;;;;;;5051742;28;45643;-51
2023/03/08 01:56:38;;;;;;;;;17.75;16.00;;;;;;;;5051531;28;45510;-50
2023/03/08 01:59:03;;;;;;;;;29.00;23.50;;;;;;;;5051984;28;45577;-50
2023/03/08 02:01:29;;;;;;;;;22.50;19.00;;;;;;;;5034341;28;45454;-49
2023/03/08 02:03:54;;;;;;;;;20.25;20.00;;;;;;;;5052436;28;45495;-51
2023/03/08 02:06:20;;;;;;;;;19.75;18.50;;;;;;;;5052037;28;45510;-49
2023/03/08 02:08:46;;;;;;;;;19.00;19.00;;;;;;;;5052083;28;45562;-52
2023/03/08 02:11:12;;;;;;;;;19.75;18.50;;;;;;;;5033673;28;45498;-49
2023/03/08 02:13:38;;;;;;;;;16.25;16.25;;;;;;;;5052363;28;45628;-50
2023/03/08 02:16:05;;;;;;;;;22.25;18.25;;;;;;;;5051905;28;45592;-50
2023/03/08 02:18:30;;;;;;;;;19.00;18.00;;;;;;;;5052019;28;45529;-47
2023/03/08 02:20:55;;;;;;;;;20.00;16.75;;;;;;;;5052071;28;45516;-49
2023/03/08 02:23:22;;;;;;;;;22.50;20.00;;;;;;;;5051735;28;45579;-52
2023/03/08 02:25:59;;;;;;;;;20.50;20.50;;;;;;;;5053145;28;45533;-50
2023/03/08 02:28:25;;;;;;;;;19.50;17.50;;;;;;;;5055411;28;45503;-51
2023/03/08 02:30:50;;;;;;;;;22.75;20.75;;;;;;;;5055034;28;45488;-48
2023/03/08 02:33:16;;;;;;;;;24.25;18.50;;;;;;;;5055167;28;45450;-50
2023/03/08 02:35:43;;;;;;;;;23.50;22.00;;;;;;;;5059981;27;45525;-51
2023/03/08 02:38:08;;;;;;;;;22.50;22.25;;;;;;;;5064316;27;45574;-50
2023/03/08 02:40:34;;;;;;;;;19.00;17.00;;;;;;;;5055018;28;45474;-52
2023/03/08 02:43:00;;;;;;;;;19.00;18.50;;;;;;;;5055122;28;45695;-51
2023/03/08 02:45:25;;;;;;;;;19.50;18.50;;;;;;;;5054934;28;46074;-49
2023/03/08 02:47:50;;;;;;;;;27.25;17.50;;;;;;;;5055242;28;45537;-52
2023/03/08 02:50:15;;;;;;;;;22.50;17.50;;;;;;;;5055360;28;45406;-48
2023/03/08 02:52:41;;;;;;;;;21.75;18.25;;;;;;;;5054995;28;45745;-49
2023/03/08 02:55:06;;;;;;;;;23.75;20.25;;;;;;;;5054478;28;46430;-54
2023/03/08 02:57:31;;;;;;;;;21.00;18.00;;;;;;;;5054867;28;45609;-48
2023/03/08 02:59:57;;;;;;;;;22.75;19.00;;;;;;;;5055061;28;45502;-48
2023/03/08 03:02:22;;;;;;;;;17.50;16.75;;;;;;;;5054867;28;45442;-51
2023/03/08 03:04:47;;;;;;;;;20.75;19.25;;;;;;;;5054789;28;46102;-47
2023/03/08 03:07:12;;;;;;;;;16.25;16.25;;;;;;;;5054659;28;45544;-49
2023/03/08 03:09:37;;;;;;;;;17.25;17.25;;;;;;;;5054763;28;46111;-53
2023/03/08 03:12:03;;;;;;;;;18.50;16.50;;;;;;;;5053923;28;45506;-49
2023/03/08 03:14:28;;;;;;;;;24.25;19.50;;;;;;;;5054701;28;45429;-51
2023/03/08 03:16:53;;;;;;;;;20.25;19.50;;;;;;;;5054642;28;45470;-51
2023/03/08 03:19:18;;;;;;;;;21.00;18.75;;;;;;;;5054497;28;45573;-49
2023/03/08 03:21:43;;;;;;;;;16.00;13.75;;;;;;;;5054375;28;45625;-49
2023/03/08 03:24:08;;;;;;;;;21.00;17.00;;;;;;;;5054335;28;46258;-47
2023/03/08 03:26:34;;;;;;;;;17.00;17.00;;;;;;;;5054557;28;45729;-52
2023/03/08 03:28:59;;;;;;;;;19.50;18.25;;;;;;;;5054114;28;45478;-48
2023/03/08 03:31:25;;;;;;;;;17.25;16.00;;;;;;;;5054461;28;45561;-49
2023/03/08 03:33:51;;;;;;;;;19.00;17.00;;;;;;;;5053896;28;45614;-51
2023/03/08 03:36:17;;;;;;;;;18.25;18.25;;;;;;;;5053868;28;45434;-51
2023/03/08 03:38:42;;;;;;;;;20.00;17.75;;;;;;;;5053580;28;45554;-51
2023/03/08 03:41:09;;;;;;;;;17.75;14.00;;;;;;;;5054222;28;45548;-53
2023/03/08 03:43:35;;;;;;;;;17.75;16.75;;;;;;;;5054146;28;45476;-48
2023/03/08 03:46:01;;;;;;;;;5.00;2.75;;;;;;;;5053939;28;45500;-53
2023/03/08 03:48:27;;;;;;;;;18.00;16.00;;;;;;;;5054264;28;45481;-49
2023/03/08 03:50:53;;;;;;;;;16.50;16.50;;;;;;;;5054006;28;45444;-50
2023/03/08 03:53:18;;;;;;;;;15.25;14.25;;;;;;;;5054004;28;45651;-48
2023/03/08 03:55:44;;;;;;;;;17.50;14.75;;;;;;;;5053929;28;45431;-48
2023/03/08 03:58:09;;;;;;;;;17.50;15.25;;;;;;;;5054007;28;45464;-49
2023/03/08 04:00:34;;;;;;;;;19.75;17.50;;;;;;;;5054120;28;45556;-51
2023/03/08 04:02:59;;;;;;;;;18.75;15.50;;;;;;;;5053237;28;45506;-51
2023/03/08 04:05:24;;;;;;;;;17.25;16.00;;;;;;;;5053794;28;45439;-51
2023/03/08 04:07:49;;;;;;;;;18.00;15.25;;;;;;;;5053745;28;45395;-52
2023/03/08 04:10:15;;;;;;;;;14.00;12.75;;;;;;;;5054045;28;45685;-47
2023/03/08 04:12:40;;;;;;;;;20.75;19.25;;;;;;;;5053555;28;45461;-51
2023/03/08 04:15:05;;;;;;;;;14.50;14.50;;;;;;;;5053692;28;45596;-48
2023/03/08 04:17:31;;;;;;;;;11.50;10.25;;;;;;;;5053935;28;45590;-53
2023/03/08 04:19:56;;;;;;;;;12.00;12.00;;;;;;;;5035421;28;45462;-48
2023/03/08 04:22:21;;;;;;;;;12.00;12.00;;;;;;;;5053564;28;45454;-52
2023/03/08 04:24:46;;;;;;;;;13.00;13.00;;;;;;;;5053580;28;45620;-50
2023/03/08 04:27:11;;;;;;;;;11.50;11.50;;;;;;;;5053421;28;45501;-52
2023/03/08 04:29:37;;;;;;;;;17.25;13.00;;;;;;;;5035050;28;45447;-50
2023/03/08 04:32:02;;;;;;;;;7.00;7.00;;;;;;;;5053082;28;45557;-49
2023/03/08 04:34:27;;;;;;;;;12.50;9.50;;;;;;;;5053358;28;45423;-49
2023/03/08 04:36:52;;;;;;;;;12.25;12.00;;;;;;;;5053589;28;45553;-51
2023/03/08 04:39:18;;;;;;;;;9.50;8.25;;;;;;;;5053587;28;45589;-52
2023/03/08 04:41:43;;;;;;;;;10.00;8.50;;;;;;;;5053334;28;45994;-52
2023/03/08 04:44:08;;;;;;;;;9.00;8.00;;;;;;;;5053034;28;45467;-49
2023/03/08 04:46:33;;;;;;;;;8.00;8.00;;;;;;;;5053491;28;45478;-48
2023/03/08 04:48:59;;;;;;;;;12.75;11.00;;;;;;;;5052992;28;45582;-51
2023/03/08 04:51:24;;;;;;;;;8.00;8.00;;;;;;;;5053212;28;46339;-51
2023/03/08 04:53:50;;;;;;;;;9.25;7.00;;;;;;;;5053077;28;45526;-50
2023/03/08 04:56:15;;;;;;;;;7.75;7.75;;;;;;;;5053283;28;45843;-51
2023/03/08 04:58:41;;;;;;;;;8.00;6.50;;;;;;;;5053244;28;45493;-46
2023/03/08 05:01:11;;;;;;;;;8.00;7.00;;;;;;;;5053025;28;45486;-49
2023/03/08 05:03:37;;;;;;;;;10.00;8.50;;;;;;;;5052979;28;45531;-49
2023/03/08 05:06:02;;;;;;;;;10.75;6.75;;;;;;;;5052744;28;45598;-48
2023/03/08 05:08:27;;;;;;;;;6.00;6.00;;;;;;;;5053244;28;45353;-50
2023/03/08 05:10:54;;;;;;;;;7.00;7.00;;;;;;;;5052765;28;46311;-49
2023/03/08 05:13:19;;;;;;;;;7.00;7.00;;;;;;;;5053074;28;45491;-48
2023/03/08 05:15:44;;;;;;;;;6.00;6.00;;;;;;;;5053056;28;45495;-47
2023/03/08 05:18:10;;;;;;;;;9.50;9.00;;;;;;;;5053970;28;45685;-50
2023/03/08 05:20:35;;;;;;;;;8.50;6.75;;;;;;;;5047361;28;46764;-48
2023/03/08 05:23:00;;;;;;;;;6.00;6.00;;;;;;;;5052680;28;45352;-51
2023/03/08 05:25:26;;;;;;;;;7.00;7.00;;;;;;;;5052924;28;45443;-51
2023/03/08 05:27:51;;;;;;;;;9.75;6.75;;;;;;;;5052895;28;45480;-49
2023/03/08 05:30:16;;;;;;;;;5.50;5.50;;;;;;;;5052247;28;45422;-48
2023/03/08 05:32:41;;;;;;;;;6.00;6.00;;;;;;;;5052702;28;45499;-51
2023/03/08 05:35:08;;;;;;;;;8.00;7.00;;;;;;;;5052925;28;45418;-48
2023/03/08 05:37:33;;;;;;;;;5.50;5.50;;;;;;;;5052829;28;45694;-48
2023/03/08 05:39:58;;;;;;;;;5.50;5.50;;;;;;;;5052520;28;45481;-52
2023/03/08 05:42:23;;;;;;;;;7.00;6.00;;;;;;;;5052482;28;45501;-51
2023/03/08 05:44:49;;;;;;;;;7.50;6.50;;;;;;;;5052614;28;45455;-50
2023/03/08 05:47:14;;;;;;;;;6.25;6.25;;;;;;;;5052538;28;45493;-48
2023/03/08 05:49:39;;;;;;;;;6.50;6.00;;;;;;;;5052416;28;46213;-50
2023/03/08 05:52:04;;;;;;;;;6.00;6.00;;;;;;;;5052396;28;45417;-52
2023/03/08 05:54:29;;;;;;;;;3.75;3.75;;;;;;;;5052971;28;45486;-49
2023/03/08 05:56:55;;;;;;;;;6.00;6.00;;;;;;;;5052542;28;45529;-50
2023/03/08 05:59:20;;;;;;;;;5.50;5.50;;;;;;;;5052276;28;45542;-51
2023/03/08 06:01:45;;;;;;;;;6.25;6.25;;;;;;;;5054837;28;45430;-51
2023/03/08 06:04:10;;;;;;;;;3.25;3.25;;;;;;;;5055901;28;45439;-49
2023/03/08 06:06:35;;;;;;;;;7.25;4.50;;;;;;;;5037671;28;45650;-51
2023/03/08 06:09:01;;;;;;;;;6.00;6.00;;;;;;;;5055674;28;46272;-49
2023/03/08 06:11:26;;;;;;;;;3.50;3.50;;;;;;;;5055577;28;45469;-49
2023/03/08 06:13:51;;;;;;;;;5.00;5.00;;;;;;;;5055951;28;45514;-50
2023/03/08 06:16:16;;;;;;;;;5.00;5.00;;;;;;;;5055604;28;45478;-51
2023/03/08 06:18:42;;;;;;;;;4.00;3.00;;;;;;;;5055257;28;45933;-51
2023/03/08 06:21:09;;;;;;;;;5.25;3.00;;;;;;;;5055588;28;45507;-49
2023/03/08 06:23:35;;;;;;;;;4.00;4.00;;;;;;;;5055602;28;45532;-51
2023/03/08 06:26:01;;;;;;;;;6.00;6.00;;;;;;;;5055387;28;45494;-49
2023/03/08 06:28:27;;;;;;;;;3.00;3.00;;;;;;;;5055036;28;47204;-51
2023/03/08 06:30:52;;;;;;;;;5.50;5.50;;;;;;;;5055215;28;45945;-51
2023/03/08 06:33:18;;;;;;;;;6.00;6.00;;;;;;;;5055708;28;45482;-49
2023/03/08 06:35:53;;;;;;;;;6.75;6.75;;;;;;;;5055503;28;45513;-51
2023/03/08 06:38:19;;;;;;;;;6.00;5.50;;;;;;;;5055028;28;45482;-50
2023/03/08 06:40:44;;;;;;;;;8.50;3.00;;;;;;;;5055165;28;45489;-52
2023/03/08 06:43:09;;;;;;;;;4.00;4.00;;;;;;;;5055364;28;45344;-53
2023/03/08 06:45:36;;;;;;;;;3.75;3.00;;;;;;;;5055111;28;45684;-51
2023/03/08 06:48:01;;;;;;;;;4.00;4.00;;;;;;;;5054977;28;45557;-50
2023/03/08 06:50:26;;;;;;;;;3.33;3.33;;;;;;;;5054798;28;45417;-50
2023/03/08 06:52:52;;;;;;;;;1.67;1.67;;;;;;;;5054888;28;45466;-50
2023/03/08 06:55:17;;;;;;;;;2.50;2.50;;;;;;;;5055268;28;45552;-50
2023/03/08 06:57:42;;;;;;;;;3.00;3.00;;;;;;;;5054484;28;45451;-50
2023/03/08 07:00:10;;;;;;;;;3.00;2.00;;;;;;;;5046139;28;45468;-54
2023/03/08 07:02:35;;;;;;;;;1.67;1.67;;;;;;;;5053263;28;45419;-55
2023/03/08 07:05:00;;;;;;;;;1.00;1.00;;;;;;;;5048596;28;45564;-53
2023/03/08 07:07:25;;;;;;;;;1.67;1.67;;;;;;;;5053677;28;46306;-53
2023/03/08 07:09:50;;;;;;;;;1.67;1.67;;;;;;;;5054380;28;45495;-54
2023/03/08 07:12:16;;;;;;;;;1.67;1.67;;;;;;;;5046562;28;45563;-52
2023/03/08 07:14:41;;;;;;;;;3.00;2.00;;;;;;;;5052863;28;45415;-52
2023/03/08 07:17:06;;;;;;;;;1.00;1.00;;;;;;;;5054257;28;45517;-53
2023/03/08 07:19:31;;;;;;;;;1.67;1.67;;;;;;;;5051278;28;45516;-53
2023/03/08 07:21:57;;;;;;;;;1.33;1.33;;;;;;;;5052830;28;45559;-55
2023/03/08 07:24:22;;;;;;;;;1.00;1.00;;;;;;;;5053533;28;45474;-55
2023/03/08 07:26:48;;;;;;;;;1.00;1.00;;;;;;;;5035622;28;46204;-63
2023/03/08 07:29:13;;;;;;;;;3.67;1.67;;;;;;;;5031039;28;45840;-60
2023/03/08 07:31:39;;;;;;;;;1.00;1.00;;;;;;;;5053127;28;45450;-61
2023/03/08 07:34:04;;;;;;;;;2.00;1.67;;;;;;;;5054463;28;45637;-61
2023/03/08 07:36:29;;;;;;;;;1.33;1.33;;;;;;;;5053082;28;46086;-61
2023/03/08 07:38:54;;;;;;;;;1.00;1.00;;;;;;;;5053711;28;45467;-60
2023/03/08 07:41:20;;;;;;;;;1.00;1.00;;;;;;;;5054099;28;45384;-60
2023/03/08 07:43:45;;;;;;;;;1.00;1.00;;;;;;;;5050158;28;45408;-60
2023/03/08 07:46:10;;;;;;;;;0.67;0.67;;;;;;;;5053612;28;45860;-60
2023/03/08 07:48:35;;;;;;;;;1.33;1.33;;;;;;;;5051976;28;45547;-62
2023/03/08 07:51:06;;;;;;;;;0.00;0.00;;;;;;;;5054228;28;45452;-60
2023/03/08 07:53:31;;;;;;;;;1.00;1.00;;;;;;;;5054718;28;45551;-61
2023/03/08 07:55:58;;;;;;;;;2.00;2.00;;;;;;;;5053944;28;45577;-61
2023/03/08 07:58:23;;;;;;;;;0.00;0.00;;;;;;;;5053925;28;45462;-61
2023/03/08 08:00:48;;;;;;;;;0.67;0.67;;;;;;;;5054079;28;45519;-61
2023/03/08 08:03:13;;;;;;;;;1.00;1.00;;;;;;;;5053204;28;45587;-64
2023/03/08 08:05:38;;;;;;;;;1.00;1.00;;;;;;;;5051962;28;46197;-66
2023/03/08 08:08:03;;;;;;;;;1.00;1.00;;;;;;;;5052749;28;45691;-65
2023/03/08 08:10:29;;;;;;;;;1.00;1.00;;;;;;;;5053992;28;45473;-65
2023/03/08 08:12:54;;;;;;;;;2.00;1.00;;;;;;;;5054015;28;45610;-56
2023/03/08 08:15:19;;;;;;;;;2.67;1.00;;;;;;;;5035266;28;46665;-59
2023/03/08 08:17:45;;;;;;;;;3.00;1.00;;;;;;;;5034982;28;45455;-64
2023/03/08 08:20:10;;;;;;;;;0.00;0.00;;;;;;;;5053436;28;45908;-63
2023/03/08 08:22:36;;;;;;;;;7.67;2.00;;;;;;;;5035595;28;45478;-64
2023/03/08 08:25:03;;;;;;;;;2.00;2.00;;;;;;;;5053220;28;45486;-58
2023/03/08 08:27:28;;;;;;;;;2.00;2.00;;;;;;;;5053885;28;45612;-62
2023/03/08 08:29:53;;;;;;;;;1.00;1.00;;;;;;;;5052707;28;45525;-61
2023/03/08 08:32:18;;;;;;;;;2.67;1.67;;;;;;;;5051818;28;45514;-66
2023/03/08 08:34:44;;;;;;;;;0.00;0.00;;;;;;;;5052655;28;45477;-63
2023/03/08 08:37:09;;;;;;;;;0.67;0.67;;;;;;;;5053017;28;45501;-60
2023/03/08 08:39:34;;;;;;;;;1.00;1.00;;;;;;;;5053563;28;45423;-62
2023/03/08 08:42:00;;;;;;;;;9.33;4.33;;;;;;;;5053349;28;45554;-62
2023/03/08 08:44:25;;;;;;;;;2.00;1.00;;;;;;;;5047761;28;46181;-64
2023/03/08 08:46:50;;;;;;;;;2.00;2.00;;;;;;;;5035585;28;45517;-62
2023/03/08 08:49:16;;;;;;;;;1.00;1.00;;;;;;;;5034718;28;45663;-64
2023/03/08 08:51:41;;;;;;;;;2.00;1.00;;;;;;;;5053593;28;45430;-60
2023/03/08 08:54:06;;;;;;;;;1.33;1.33;;;;;;;;5053316;28;45953;-60
2023/03/08 08:56:31;;;;;;;;;1.33;1.33;;;;;;;;5053568;28;45462;-62
2023/03/08 08:58:58;;;;;;;;;2.00;2.00;;;;;;;;5053285;28;45526;-65
2023/03/08 09:01:25;;;;;;;;;1.00;1.00;;;;;;;;5051360;28;45404;-58
2023/03/08 09:03:50;;;;;;;;;2.00;0.67;;;;;;;;5052000;28;45600;-59
2023/03/08 09:06:18;;;;;;;;;1.33;1.33;;;;;;;;5053949;28;45507;-62
2023/03/08 09:08:43;;;;;;;;;2.00;2.00;;;;;;;;5046270;28;45471;-62
2023/03/08 09:11:09;;;;;;;;;2.00;1.00;;;;;;;;5053159;28;45494;-63
2023/03/08 09:13:37;;;;;;;;;1.33;1.33;;;;;;;;5052828;28;45761;-62
2023/03/08 09:16:02;;;;;;;;;4.00;2.67;;;;;;;;5046585;28;45553;-51
2023/03/08 09:18:27;;;;;;;;;1.00;1.00;;;;;;;;5052794;28;46116;-58
2023/03/08 09:20:53;;;;;;;;;1.00;1.00;;;;;;;;5034631;28;45448;-57
2023/03/08 09:23:18;;;;;;;;;1.33;1.33;;;;;;;;5052007;28;46135;-58
2023/03/08 09:25:43;;;;;;;;;1.67;1.67;;;;;;;;5050893;28;45548;-58
2023/03/08 09:28:10;;;;;;;;;1.00;1.00;;;;;;;;5034272;28;45397;-57
2023/03/08 09:30:35;;;;;;;;;1.00;1.00;;;;;;;;5052689;28;45680;-57
2023/03/08 09:33:01;;;;;;;;;2.00;2.00;;;;;;;;5052915;28;46206;-57
2023/03/08 09:35:26;;;;;;;;;1.00;1.00;;;;;;;;5053444;28;45486;-57
2023/03/08 09:37:51;;;;;;;;;2.00;2.00;;;;;;;;5056856;28;45523;-58
2023/03/08 09:40:20;;;;;;;;;1.00;1.00;;;;;;;;5056935;28;45476;-58
2023/03/08 09:42:45;;;;;;;;;2.67;2.67;;;;;;;;5056634;28;46641;-57
2023/03/08 09:45:17;;;;;;;;;2.00;2.00;;;;;;;;5056340;28;45471;-58
2023/03/08 09:47:48;;;;;;;;;1.00;1.00;;;;;;;;5025361;28;45792;-58
2023/03/08 09:50:18;;;;;;;;;2.67;1.00;;;;;;;;5038518;28;45651;-58
2023/03/08 09:53:05;;;;;;;;;2.00;2.00;;;;;;;;5056279;28;46279;-58
2023/03/08 09:55:34;;;;;;;;;2.00;2.00;;;;;;;;5056155;28;45553;-58
2023/03/08 09:58:10;;;;;;;;;3.00;2.00;;;;;;;;5056572;28;45503;-58
2023/03/08 10:00:36;;;;;;;;;2.00;2.00;;;;;;;;5056167;28;45526;-58
2023/03/08 10:03:02;;;;;;;;;1.67;1.67;;;;;;;;5055990;28;46148;-58
2023/03/08 10:05:40;;;;;;;;;2.00;2.00;;;;;;;;5056343;28;45502;-59
2023/03/08 10:08:17;;;;;;;;;1.33;1.33;;;;;;;;5051771;28;45526;-57
2023/03/08 10:10:42;;;;;;;;;3.00;3.00;;;;;;;;5056135;28;45519;-60
2023/03/08 10:13:20;;;;;;;;;1.00;1.00;;;;;;;;5052435;28;45803;-60
2023/03/08 10:15:49;;;;;;;;;1.00;1.00;;;;;;;;5055798;28;45450;-60
2023/03/08 10:18:22;;;;;;;;;3.00;2.33;;;;;;;;5055821;28;45470;-60
2023/03/08 10:20:48;;;;;;;;;1.67;1.67;;;;;;;;5055097;28;45557;-60
2023/03/08 10:23:14;;;;;;;;;1.00;1.00;;;;;;;;5054776;28;45422;-58
2023/03/08 10:25:40;;;;;;;;;1.00;1.00;;;;;;;;5055150;28;45506;-61
2023/03/08 10:28:10;;;;;;;;;1.00;1.00;;;;;;;;5051313;28;46124;-60
2023/03/08 10:30:43;;;;;;;;;1.67;1.00;;;;;;;;5053752;28;45470;-60
2023/03/08 10:33:10;;;;;;;;;0.67;0.67;;;;;;;;5051683;28;45569;-59
2023/03/08 10:35:37;;;;;;;;;2.00;2.00;;;;;;;;5053759;28;45699;-59
2023/03/08 10:38:13;;;;;;;;;1.00;1.00;;;;;;;;5054050;28;45599;-59
2023/03/08 10:40:39;;;;;;;;;1.00;1.00;;;;;;;;5054749;28;45742;-60
2023/03/08 10:43:05;;;;;;;;;1.00;1.00;;;;;;;;5054492;28;46315;-58
2023/03/08 10:45:30;;;;;;;;;1.00;1.00;;;;;;;;5053527;28;45567;-59
2023/03/08 10:47:57;;;;;;;;;1.00;1.00;;;;;;;;5054534;28;45561;-60
2023/03/08 10:50:24;;;;;;;;;0.67;0.67;;;;;;;;5054365;28;45355;-60
2023/03/08 10:52:49;;;;;;;;;2.33;1.00;;;;;;;;5054157;28;45497;-61
2023/03/08 10:55:30;;;;;;;;;1.00;1.00;;;;;;;;5052996;28;45431;-54
2023/03/08 10:57:56;;;;;;;;;1.00;1.00;;;;;;;;5053985;28;45533;-54
2023/03/08 11:00:34;;;;;;;;;1.00;1.00;;;;;;;;5052026;28;45629;-58
2023/03/08 11:03:11;;;;;;;;;1.67;1.67;;;;;;;;5052064;28;45490;-58
2023/03/08 11:05:36;;;;;;;;;2.00;2.00;;;;;;;;5054083;28;45561;-58
2023/03/08 11:08:02;;;;;;;;;2.00;2.00;;;;;;;;5054019;28;45410;-57
2023/03/08 11:10:28;;;;;;;;;2.00;2.00;;;;;;;;5036067;28;45423;-57
2023/03/08 11:13:05;;;;;;;;;2.00;2.00;;;;;;;;5054012;28;46490;-57
2023/03/08 11:15:33;;;;;;;;;1.50;1.00;;;;;;;;5053959;28;45495;-58
2023/03/08 11:18:17;;;;;;;;;2.67;2.33;;;;;;;;5054013;28;45556;-57
2023/03/08 11:20:50;;;;;;;;;5.33;5.33;;;;;;;;5041973;28;45672;-58
2023/03/08 11:23:25;;;;;;;;;4.00;3.00;;;;;;;;5053580;28;45525;-59
2023/03/08 11:26:06;;;;;;;;;1.33;1.33;;;;;;;;5053693;28;45376;-56
2023/03/08 11:28:32;;;;;;;;;1.67;1.67;;;;;;;;5053554;28;45579;-57
2023/03/08 11:31:17;;;;;;;;;2.67;2.00;;;;;;;;5013377;28;1166929;-58
2023/03/08 11:33:42;;;;;;;;;1.00;1.00;;;;;;;;5054835;28;45491;-57
2023/03/08 11:36:13;;;;;;;;;2.00;2.00;;;;;;;;5036608;28;45388;-59
2023/03/08 11:38:39;;;;;;;;;2.00;2.00;;;;;;;;5054450;28;45467;-57
2023/03/08 11:41:16;;;;;;;;;1.00;1.00;;;;;;;;5054913;28;45557;-57
2023/03/08 11:43:47;;;;;;;;;0.00;0.00;;;;;;;;5054360;28;46301;-57
2023/03/08 11:46:24;;;;;;;;;2.00;2.00;;;;;;;;5054671;28;45493;-57
2023/03/08 11:49:10;;;;;;;;;1.00;1.00;;;;;;;;5052261;28;45585;-56
2023/03/08 11:51:35;;;;;;;;;1.00;1.00;;;;;;;;5051871;28;45574;-57
2023/03/08 11:54:19;;;;;;;;;0.00;0.00;;;;;;;;5054383;28;45568;-57
2023/03/08 11:56:44;;;;;;;;;1.00;1.00;;;;;;;;5048600;28;45604;-59
2023/03/08 11:59:15;;;;;;;;;1.00;1.00;;;;;;;;5056035;27;45588;-56
2023/03/08 12:01:46;;;;;;;;;2.00;1.67;;;;;;;;5046917;28;45533;-58
2023/03/08 12:04:15;;;;;;;;;2.00;2.00;;;;;;;;5052104;28;46141;-61
2023/03/08 12:06:42;;;;;;;;;2.00;2.00;;;;;;;;5053540;28;45501;-57
2023/03/08 12:09:14;;;;;;;;;2.00;2.00;;;;;;;;5053883;28;45573;-57
2023/03/08 12:11:42;;;;;;;;;1.00;1.00;;;;;;;;5055471;28;45610;-56
2023/03/08 12:14:17;;;;;;;;;1.67;1.67;;;;;;;;5054069;28;45469;-56
2023/03/08 12:16:55;;;;;;;;;1.33;1.00;;;;;;;;5041187;28;45444;-55
2023/03/08 12:19:25;;;;;;;;;1.67;1.67;;;;;;;;5042956;28;45664;-56
2023/03/08 12:21:51;;;;;;;;;1.33;1.33;;;;;;;;5051173;28;45399;-56
2023/03/08 12:24:28;;;;;;;;;1.00;1.00;;;;;;;;5053851;28;45533;-55
2023/03/08 12:27:00;;;;;;;;;3.00;1.33;;;;;;;;5053659;28;45546;-57
2023/03/08 12:29:32;;;;;;;;;2.00;2.00;;;;;;;;5052718;28;45534;-56
2023/03/08 12:31:58;;;;;;;;;2.00;2.00;;;;;;;;5053636;28;45490;-59
2023/03/08 12:34:26;;;;;;;;;2.00;2.00;;;;;;;;5050509;28;46281;-53
2023/03/08 12:36:52;;;;;;;;;0.67;0.67;;;;;;;;5051330;28;45502;-55
2023/03/08 12:39:29;;;;;;;;;2.00;0.67;;;;;;;;5053862;28;45473;-56
2023/03/08 12:41:57;;;;;;;;;1.67;1.67;;;;;;;;5053066;28;45513;-55
2023/03/08 12:44:24;;;;;;;;;1.67;1.67;;;;;;;;5052887;28;45437;-53
2023/03/08 12:46:51;;;;;;;;;3.00;1.67;;;;;;;;5052968;28;45563;-55
2023/03/08 12:49:36;;;;;;;;;3.00;2.00;;;;;;;;5053142;28;45829;-53
2023/03/08 12:52:03;;;;;;;;;2.33;1.00;;;;;;;;5053195;28;45610;-53
2023/03/08 12:54:30;;;;;;;;;1.00;1.00;;;;;;;;5052962;28;45529;-56
2023/03/08 12:56:56;;;;;;;;;1.00;1.00;;;;;;;;5052874;28;45494;-53
2023/03/08 12:59:27;;;;;;;;;1.67;1.67;;;;;;;;5052852;28;45534;-54
2023/03/08 13:01:55;;;;;;;;;2.00;2.00;;;;;;;;5052940;28;45562;-54
2023/03/08 13:04:25;;;;;;;;;2.00;1.67;;;;;;;;5052515;28;45502;-55
2023/03/08 13:06:50;;;;;;;;;2.00;2.00;;;;;;;;5052833;28;45416;-55
2023/03/08 13:09:22;;;;;;;;;1.00;1.00;;;;;;;;5052905;28;46076;-54
2023/03/08 13:12:11;;;;;;;;;0.00;0.00;;;;;;;;5052997;28;45567;-54
2023/03/08 13:14:36;;;;;;;;;0.00;0.00;;;;;;;;5023724;28;46147;-54
2023/03/08 13:17:01;;;;;;;;;0.00;0.00;;;;;;;;5052962;28;45609;-53
2023/03/08 13:19:29;;;;;;;;;0.00;0.00;;;;;;;;5052920;28;45491;-54
2023/03/08 13:21:54;;;;;;;;;0.00;0.00;;;;;;;;5034354;28;45514;-53
2023/03/08 13:24:34;;;;;;;;;1.67;1.00;;;;;;;;5052533;28;46184;-54
2023/03/08 13:27:08;;;;;;;;;1.00;1.00;;;;;;;;5052625;28;45491;-54
2023/03/08 13:29:34;;;;;;;;;3.00;2.00;;;;;;;;5052654;28;45609;-55
2023/03/08 13:32:10;;;;;;;;;2.00;2.00;;;;;;;;5052249;28;45559;-55
2023/03/08 13:34:35;;;;;;;;;3.00;3.00;;;;;;;;5052645;28;46409;-53
2023/03/08 13:37:01;;;;;;;;;2.33;2.33;;;;;;;;5052315;28;45426;-54
2023/03/08 13:39:27;;;;;;;;;2.00;1.00;;;;;;;;5052774;28;45492;-53
2023/03/08 13:42:03;;;;;;;;;1.00;1.00;;;;;;;;5052226;28;45514;-55
2023/03/08 13:44:29;;;;;;;;;0.67;0.67;;;;;;;;5052331;28;46216;-53
2023/03/08 13:46:56;;;;;;;;;2.00;0.33;;;;;;;;5052471;28;45761;-54
2023/03/08 13:49:23;;;;;;;;;2.00;2.00;;;;;;;;5052641;28;45427;-53
2023/03/08 13:51:50;;;;;;;;;2.00;2.00;;;;;;;;5052642;28;45583;-55
2023/03/08 13:54:18;;;;;;;;;2.00;2.00;;;;;;;;5052202;28;46156;-51
2023/03/08 13:56:44;;;;;;;;;0.00;0.00;;;;;;;;5034136;28;45553;-51
2023/03/08 13:59:17;;;;;;;;;1.00;1.00;;;;;;;;5052518;28;45583;-53
2023/03/08 14:01:47;;;;;;;;;2.00;2.00;;;;;;;;5052387;28;45439;-52
2023/03/08 14:04:15;;;;;;;;;3.00;2.00;;;;;;;;5052033;28;45483;-56
2023/03/08 14:06:47;;;;;;;;;1.00;1.00;;;;;;;;5052150;28;45467;-56
2023/03/08 14:09:12;;;;;;;;;4.00;3.00;;;;;;;;5052253;28;45573;-54
2023/03/08 14:11:39;;;;;;;;;2.00;2.00;;;;;;;;5052215;28;45462;-56
2023/03/08 14:14:06;;;;;;;;;4.00;2.67;;;;;;;;5052098;28;46593;-52
2023/03/08 14:16:35;;;;;;;;;1.33;1.00;;;;;;;;5051900;28;45475;-53
2023/03/08 14:19:12;;;;;;;;;2.00;2.00;;;;;;;;5051977;28;45632;-56
2023/03/08 14:21:46;;;;;;;;;1.67;1.67;;;;;;;;5052929;28;45599;-54
2023/03/08 14:24:18;;;;;;;;;2.33;2.33;;;;;;;;5055178;28;45524;-55
2023/03/08 14:26:51;;;;;;;;;1.00;1.00;;;;;;;;5055032;28;45553;-55
2023/03/08 14:29:23;;;;;;;;;2.00;2.00;;;;;;;;5055301;28;45581;-55
2023/03/08 14:32:03;;;;;;;;;3.00;3.00;;;;;;;;5036682;28;45507;-53
2023/03/08 14:34:32;;;;;;;;;2.00;2.00;;;;;;;;5055101;28;46139;-55